sensor_id;sensor_type;location;lat;lon;timestamp;P1;durP1;ratioP1;P2;durP2;ratioP2
10535;SDS011;5316;49.538;8.352;2023-05-07T00:01:34;4.13;;;2.40;;
10535;SDS011;5316;49.538;8.352;2023-05-07T00:04:18;3.20;;;2.47;;
10535;SDS011;5316;49.538;8.352;2023-05-07T00:06:48;3.17;;;2.50;;
10535;SDS011;5316;49.538;8.352;2023-05-07T00:12:07;2.87;;;2.50;;
10535;SDS011;5316;49.538;8.352;2023-05-07T00:14:34;3.10;;;2.90;;
10535;SDS011;5316;49.538;8.352;2023-05-07T00:17:00;3.80;;;3.50;;
10535;SDS011;5316;49.538;8.352;2023-05-07T00:19:31;3.63;;;3.20;;
10535;SDS011;5316;49.538;8.352;2023-05-07T00:22:13;4.17;;;2.87;;
10535;SDS011;5316;49.538;8.352;2023-05-07T00:24:53;3.20;;;2.90;;
10535;SDS011;5316;49.538;8.352;2023-05-07T00:27:25;3.87;;;3.37;;
10535;SDS011;5316;49.538;8.352;2023-05-07T00:29:54;3.47;;;3.17;;
10535;SDS011;5316;49.538;8.352;2023-05-07T00:32:38;5.70;;;2.83;;
10535;SDS011;5316;49.538;8.352;2023-05-07T00:35:13;5.60;;;2.87;;
10535;SDS011;5316;49.538;8.352;2023-05-07T00:37:58;2.90;;;2.60;;
10535;SDS011;5316;49.538;8.352;2023-05-07T00:40:33;3.60;;;2.60;;
10535;SDS011;5316;49.538;8.352;2023-05-07T00:43:08;3.30;;;2.60;;
10535;SDS011;5316;49.538;8.352;2023-05-07T00:45:38;3.73;;;2.87;;
10535;SDS011;5316;49.538;8.352;2023-05-07T00:48:07;2.53;;;2.33;;
10535;SDS011;5316;49.538;8.352;2023-05-07T00:50:45;4.83;;;2.53;;
10535;SDS011;5316;49.538;8.352;2023-05-07T00:53:18;2.57;;;2.37;;
10535;SDS011;5316;49.538;8.352;2023-05-07T00:55:54;3.33;;;2.57;;
10535;SDS011;5316;49.538;8.352;2023-05-07T00:58:25;3.23;;;2.93;;
10535;SDS011;5316;49.538;8.352;2023-05-07T01:01:00;3.43;;;2.73;;
10535;SDS011;5316;49.538;8.352;2023-05-07T01:03:32;2.87;;;2.17;;
10535;SDS011;5316;49.538;8.352;2023-05-07T01:06:05;3.07;;;2.20;;
10535;SDS011;5316;49.538;8.352;2023-05-07T01:08:33;2.50;;;2.30;;
10535;SDS011;5316;49.538;8.352;2023-05-07T01:11:04;2.73;;;1.97;;
10535;SDS011;5316;49.538;8.352;2023-05-07T01:13:37;2.30;;;2.20;;
10535;SDS011;5316;49.538;8.352;2023-05-07T01:16:05;2.27;;;2.07;;
10535;SDS011;5316;49.538;8.352;2023-05-07T01:18:33;3.03;;;1.77;;
10535;SDS011;5316;49.538;8.352;2023-05-07T01:21:00;5.23;;;2.63;;
10535;SDS011;5316;49.538;8.352;2023-05-07T01:23:34;3.23;;;2.10;;
10535;SDS011;5316;49.538;8.352;2023-05-07T01:26:01;2.50;;;2.30;;
10535;SDS011;5316;49.538;8.352;2023-05-07T01:28:34;2.77;;;2.53;;
10535;SDS011;5316;49.538;8.352;2023-05-07T01:31:04;2.60;;;2.40;;
10535;SDS011;5316;49.538;8.352;2023-05-07T01:33:32;2.50;;;2.07;;
10535;SDS011;5316;49.538;8.352;2023-05-07T01:36:03;3.27;;;2.20;;
10535;SDS011;5316;49.538;8.352;2023-05-07T01:38:36;3.93;;;2.50;;
10535;SDS011;5316;49.538;8.352;2023-05-07T01:41:04;3.67;;;2.63;;
10535;SDS011;5316;49.538;8.352;2023-05-07T01:43:32;4.17;;;2.33;;
10535;SDS011;5316;49.538;8.352;2023-05-07T01:46:00;2.17;;;2.07;;
10535;SDS011;5316;49.538;8.352;2023-05-07T01:48:28;2.37;;;1.90;;
10535;SDS011;5316;49.538;8.352;2023-05-07T01:50:55;5.70;;;2.00;;
10535;SDS011;5316;49.538;8.352;2023-05-07T01:53:22;2.33;;;1.83;;
10535;SDS011;5316;49.538;8.352;2023-05-07T01:55:54;2.50;;;2.00;;
10535;SDS011;5316;49.538;8.352;2023-05-07T01:58:22;3.50;;;2.33;;
10535;SDS011;5316;49.538;8.352;2023-05-07T02:00:49;2.90;;;2.37;;
10535;SDS011;5316;49.538;8.352;2023-05-07T02:03:16;2.40;;;2.27;;
10535;SDS011;5316;49.538;8.352;2023-05-07T02:05:43;3.00;;;2.30;;
10535;SDS011;5316;49.538;8.352;2023-05-07T02:08:13;2.87;;;2.30;;
10535;SDS011;5316;49.538;8.352;2023-05-07T02:10:40;2.07;;;1.87;;
10535;SDS011;5316;49.538;8.352;2023-05-07T02:13:08;2.43;;;2.23;;
10535;SDS011;5316;49.538;8.352;2023-05-07T02:15:35;2.77;;;1.90;;
10535;SDS011;5316;49.538;8.352;2023-05-07T02:18:03;2.10;;;1.90;;
10535;SDS011;5316;49.538;8.352;2023-05-07T02:20:34;3.53;;;2.47;;
10535;SDS011;5316;49.538;8.352;2023-05-07T02:23:01;2.67;;;1.90;;
10535;SDS011;5316;49.538;8.352;2023-05-07T02:25:28;3.03;;;2.10;;
10535;SDS011;5316;49.538;8.352;2023-05-07T02:27:55;2.77;;;2.13;;
10535;SDS011;5316;49.538;8.352;2023-05-07T02:30:24;2.93;;;1.90;;
10535;SDS011;5316;49.538;8.352;2023-05-07T02:32:53;2.17;;;2.00;;
10535;SDS011;5316;49.538;8.352;2023-05-07T02:35:20;2.07;;;1.93;;
10535;SDS011;5316;49.538;8.352;2023-05-07T02:37:46;3.10;;;2.23;;
10535;SDS011;5316;49.538;8.352;2023-05-07T02:40:13;2.27;;;2.00;;
10535;SDS011;5316;49.538;8.352;2023-05-07T02:42:40;2.93;;;2.17;;
10535;SDS011;5316;49.538;8.352;2023-05-07T02:45:07;2.50;;;2.30;;
10535;SDS011;5316;49.538;8.352;2023-05-07T02:47:38;3.60;;;2.37;;
10535;SDS011;5316;49.538;8.352;2023-05-07T02:50:08;2.60;;;2.20;;
10535;SDS011;5316;49.538;8.352;2023-05-07T02:52:35;2.60;;;2.40;;
10535;SDS011;5316;49.538;8.352;2023-05-07T02:55:04;2.47;;;2.27;;
10535;SDS011;5316;49.538;8.352;2023-05-07T02:57:32;2.60;;;2.50;;
10535;SDS011;5316;49.538;8.352;2023-05-07T02:59:58;4.00;;;2.37;;
10535;SDS011;5316;49.538;8.352;2023-05-07T03:02:25;2.97;;;2.60;;
10535;SDS011;5316;49.538;8.352;2023-05-07T03:04:53;2.40;;;2.30;;
10535;SDS011;5316;49.538;8.352;2023-05-07T03:07:20;3.40;;;2.30;;
10535;SDS011;5316;49.538;8.352;2023-05-07T03:09:47;2.83;;;2.33;;
10535;SDS011;5316;49.538;8.352;2023-05-07T03:12:13;2.70;;;2.50;;
10535;SDS011;5316;49.538;8.352;2023-05-07T03:14:40;2.77;;;2.40;;
10535;SDS011;5316;49.538;8.352;2023-05-07T03:17:07;2.73;;;2.50;;
10535;SDS011;5316;49.538;8.352;2023-05-07T03:19:34;2.70;;;2.50;;
10535;SDS011;5316;49.538;8.352;2023-05-07T03:22:02;3.63;;;2.60;;
10535;SDS011;5316;49.538;8.352;2023-05-07T03:24:28;2.73;;;2.53;;
10535;SDS011;5316;49.538;8.352;2023-05-07T03:26:55;4.23;;;2.60;;
10535;SDS011;5316;49.538;8.352;2023-05-07T03:29:23;2.40;;;2.23;;
10535;SDS011;5316;49.538;8.352;2023-05-07T03:31:52;2.70;;;2.50;;
10535;SDS011;5316;49.538;8.352;2023-05-07T03:34:19;3.00;;;2.23;;
10535;SDS011;5316;49.538;8.352;2023-05-07T03:36:47;2.60;;;2.40;;
10535;SDS011;5316;49.538;8.352;2023-05-07T03:39:15;4.60;;;3.00;;
10535;SDS011;5316;49.538;8.352;2023-05-07T03:41:41;2.60;;;2.40;;
10535;SDS011;5316;49.538;8.352;2023-05-07T03:44:08;2.83;;;2.33;;
10535;SDS011;5316;49.538;8.352;2023-05-07T03:46:35;2.70;;;2.50;;
10535;SDS011;5316;49.538;8.352;2023-05-07T03:49:01;2.97;;;2.77;;
10535;SDS011;5316;49.538;8.352;2023-05-07T03:51:28;3.63;;;2.67;;
10535;SDS011;5316;49.538;8.352;2023-05-07T03:53:56;2.77;;;2.57;;
10535;SDS011;5316;49.538;8.352;2023-05-07T03:56:24;3.07;;;2.80;;
10535;SDS011;5316;49.538;8.352;2023-05-07T03:58:52;2.43;;;2.27;;
10535;SDS011;5316;49.538;8.352;2023-05-07T04:01:19;2.87;;;2.67;;
10535;SDS011;5316;49.538;8.352;2023-05-07T04:03:46;4.47;;;2.57;;
10535;SDS011;5316;49.538;8.352;2023-05-07T04:06:12;3.33;;;2.77;;
10535;SDS011;5316;49.538;8.352;2023-05-07T04:08:39;3.10;;;2.80;;
10535;SDS011;5316;49.538;8.352;2023-05-07T04:11:06;3.20;;;2.90;;
10535;SDS011;5316;49.538;8.352;2023-05-07T04:13:34;3.30;;;3.00;;
10535;SDS011;5316;49.538;8.352;2023-05-07T04:16:01;3.50;;;3.13;;
10535;SDS011;5316;49.538;8.352;2023-05-07T04:18:29;2.73;;;2.60;;
10535;SDS011;5316;49.538;8.352;2023-05-07T04:20:55;3.23;;;3.00;;
10535;SDS011;5316;49.538;8.352;2023-05-07T04:23:22;3.10;;;2.80;;
10535;SDS011;5316;49.538;8.352;2023-05-07T04:25:49;3.03;;;2.50;;
10535;SDS011;5316;49.538;8.352;2023-05-07T04:28:16;3.40;;;3.10;;
10535;SDS011;5316;49.538;8.352;2023-05-07T04:30:44;3.43;;;3.13;;
10535;SDS011;5316;49.538;8.352;2023-05-07T04:33:11;3.17;;;2.97;;
10535;SDS011;5316;49.538;8.352;2023-05-07T04:35:38;3.10;;;2.87;;
10535;SDS011;5316;49.538;8.352;2023-05-07T04:38:04;3.00;;;2.80;;
10535;SDS011;5316;49.538;8.352;2023-05-07T04:40:31;3.30;;;3.10;;
10535;SDS011;5316;49.538;8.352;2023-05-07T04:42:58;3.00;;;2.80;;
10535;SDS011;5316;49.538;8.352;2023-05-07T04:45:25;3.50;;;3.30;;
10535;SDS011;5316;49.538;8.352;2023-05-07T04:47:53;3.80;;;3.23;;
10535;SDS011;5316;49.538;8.352;2023-05-07T04:50:20;3.13;;;2.93;;
10535;SDS011;5316;49.538;8.352;2023-05-07T04:52:49;3.10;;;2.90;;
10535;SDS011;5316;49.538;8.352;2023-05-07T04:55:16;3.47;;;3.10;;
10535;SDS011;5316;49.538;8.352;2023-05-07T04:57:43;3.20;;;2.90;;
10535;SDS011;5316;49.538;8.352;2023-05-07T05:00:10;3.17;;;2.70;;
10535;SDS011;5316;49.538;8.352;2023-05-07T05:02:39;4.40;;;2.90;;
10535;SDS011;5316;49.538;8.352;2023-05-07T05:05:07;4.10;;;2.83;;
10535;SDS011;5316;49.538;8.352;2023-05-07T05:07:34;5.90;;;4.57;;
10535;SDS011;5316;49.538;8.352;2023-05-07T05:10:01;5.87;;;3.50;;
10535;SDS011;5316;49.538;8.352;2023-05-07T05:12:28;4.63;;;3.33;;
10535;SDS011;5316;49.538;8.352;2023-05-07T05:14:55;3.40;;;3.10;;
10535;SDS011;5316;49.538;8.352;2023-05-07T05:17:22;3.07;;;2.87;;
10535;SDS011;5316;49.538;8.352;2023-05-07T05:19:49;3.27;;;2.93;;
10535;SDS011;5316;49.538;8.352;2023-05-07T05:22:17;3.50;;;2.67;;
10535;SDS011;5316;49.538;8.352;2023-05-07T05:24:43;2.90;;;2.60;;
10535;SDS011;5316;49.538;8.352;2023-05-07T05:27:10;3.47;;;3.17;;
10535;SDS011;5316;49.538;8.352;2023-05-07T05:29:37;4.23;;;2.90;;
10535;SDS011;5316;49.538;8.352;2023-05-07T05:32:04;2.93;;;2.73;;
10535;SDS011;5316;49.538;8.352;2023-05-07T05:34:30;3.47;;;3.17;;
10535;SDS011;5316;49.538;8.352;2023-05-07T05:36:58;2.50;;;2.40;;
10535;SDS011;5316;49.538;8.352;2023-05-07T05:39:26;4.87;;;2.80;;
10535;SDS011;5316;49.538;8.352;2023-05-07T05:41:53;2.90;;;2.70;;
10535;SDS011;5316;49.538;8.352;2023-05-07T05:44:20;3.97;;;3.10;;
10535;SDS011;5316;49.538;8.352;2023-05-07T05:46:47;3.07;;;2.77;;
10535;SDS011;5316;49.538;8.352;2023-05-07T05:49:14;2.90;;;2.50;;
10535;SDS011;5316;49.538;8.352;2023-05-07T05:51:41;4.83;;;3.33;;
10535;SDS011;5316;49.538;8.352;2023-05-07T05:54:08;3.10;;;2.77;;
10535;SDS011;5316;49.538;8.352;2023-05-07T05:56:36;3.33;;;2.80;;
10535;SDS011;5316;49.538;8.352;2023-05-07T05:59:03;3.63;;;2.60;;
10535;SDS011;5316;49.538;8.352;2023-05-07T06:01:30;2.80;;;2.60;;
10535;SDS011;5316;49.538;8.352;2023-05-07T06:03:56;3.43;;;2.87;;
10535;SDS011;5316;49.538;8.352;2023-05-07T06:06:23;2.80;;;2.70;;
10535;SDS011;5316;49.538;8.352;2023-05-07T06:08:50;3.00;;;2.73;;
10535;SDS011;5316;49.538;8.352;2023-05-07T06:11:17;3.77;;;2.60;;
10535;SDS011;5316;49.538;8.352;2023-05-07T06:13:45;2.77;;;2.53;;
10535;SDS011;5316;49.538;8.352;2023-05-07T06:16:12;2.57;;;2.40;;
10535;SDS011;5316;49.538;8.352;2023-05-07T06:18:39;3.00;;;2.63;;
10535;SDS011;5316;49.538;8.352;2023-05-07T06:21:05;3.57;;;2.70;;
10535;SDS011;5316;49.538;8.352;2023-05-07T06:23:32;4.23;;;2.73;;
10535;SDS011;5316;49.538;8.352;2023-05-07T06:26:00;2.67;;;2.47;;
10535;SDS011;5316;49.538;8.352;2023-05-07T06:28:26;4.00;;;2.97;;
10535;SDS011;5316;49.538;8.352;2023-05-07T06:31:06;3.43;;;2.60;;
10535;SDS011;5316;49.538;8.352;2023-05-07T06:33:37;2.73;;;2.50;;
10535;SDS011;5316;49.538;8.352;2023-05-07T06:36:04;3.97;;;3.67;;
10535;SDS011;5316;49.538;8.352;2023-05-07T06:38:32;2.27;;;2.17;;
10535;SDS011;5316;49.538;8.352;2023-05-07T06:40:58;4.10;;;2.80;;
10535;SDS011;5316;49.538;8.352;2023-05-07T06:43:25;2.87;;;2.50;;
10535;SDS011;5316;49.538;8.352;2023-05-07T06:45:52;2.20;;;2.10;;
10535;SDS011;5316;49.538;8.352;2023-05-07T06:48:20;2.20;;;1.93;;
10535;SDS011;5316;49.538;8.352;2023-05-07T06:50:47;2.37;;;2.17;;
10535;SDS011;5316;49.538;8.352;2023-05-07T06:53:13;2.43;;;2.13;;
10535;SDS011;5316;49.538;8.352;2023-05-07T06:55:40;2.53;;;1.83;;
10535;SDS011;5316;49.538;8.352;2023-05-07T06:58:07;2.20;;;2.03;;
10535;SDS011;5316;49.538;8.352;2023-05-07T07:00:34;2.63;;;2.20;;
10535;SDS011;5316;49.538;8.352;2023-05-07T07:03:01;6.67;;;2.73;;
10535;SDS011;5316;49.538;8.352;2023-05-07T07:05:29;4.40;;;2.67;;
10535;SDS011;5316;49.538;8.352;2023-05-07T07:07:55;3.60;;;2.00;;
10535;SDS011;5316;49.538;8.352;2023-05-07T07:10:22;6.60;;;2.20;;
10535;SDS011;5316;49.538;8.352;2023-05-07T07:12:49;2.20;;;2.10;;
10535;SDS011;5316;49.538;8.352;2023-05-07T07:15:17;5.53;;;2.73;;
10535;SDS011;5316;49.538;8.352;2023-05-07T07:17:45;4.33;;;2.20;;
10535;SDS011;5316;49.538;8.352;2023-05-07T07:20:12;4.90;;;3.57;;
10535;SDS011;5316;49.538;8.352;2023-05-07T07:22:40;2.60;;;2.40;;
10535;SDS011;5316;49.538;8.352;2023-05-07T07:25:07;2.33;;;2.23;;
10535;SDS011;5316;49.538;8.352;2023-05-07T07:27:36;2.60;;;2.40;;
10535;SDS011;5316;49.538;8.352;2023-05-07T07:30:06;4.90;;;2.10;;
10535;SDS011;5316;49.538;8.352;2023-05-07T07:32:33;2.40;;;2.20;;
10535;SDS011;5316;49.538;8.352;2023-05-07T07:35:00;3.67;;;1.93;;
10535;SDS011;5316;49.538;8.352;2023-05-07T07:37:27;2.77;;;2.57;;
10535;SDS011;5316;49.538;8.352;2023-05-07T07:39:56;2.23;;;2.07;;
10535;SDS011;5316;49.538;8.352;2023-05-07T07:42:23;2.43;;;2.30;;
10535;SDS011;5316;49.538;8.352;2023-05-07T07:44:50;2.17;;;1.93;;
10535;SDS011;5316;49.538;8.352;2023-05-07T07:47:16;2.67;;;2.00;;
10535;SDS011;5316;49.538;8.352;2023-05-07T07:49:43;2.40;;;2.20;;
10535;SDS011;5316;49.538;8.352;2023-05-07T07:52:10;2.40;;;2.30;;
10535;SDS011;5316;49.538;8.352;2023-05-07T07:54:37;2.60;;;2.40;;
10535;SDS011;5316;49.538;8.352;2023-05-07T07:57:05;2.93;;;2.20;;
10535;SDS011;5316;49.538;8.352;2023-05-07T07:59:31;2.70;;;2.10;;
10535;SDS011;5316;49.538;8.352;2023-05-07T08:01:58;2.10;;;1.90;;
10535;SDS011;5316;49.538;8.352;2023-05-07T08:04:25;2.57;;;2.37;;
10535;SDS011;5316;49.538;8.352;2023-05-07T08:06:52;2.35;;;1.83;;
10535;SDS011;5316;49.538;8.352;2023-05-07T08:09:19;2.37;;;2.17;;
10535;SDS011;5316;49.538;8.352;2023-05-07T08:11:46;2.10;;;2.00;;
10535;SDS011;5316;49.538;8.352;2023-05-07T08:14:14;2.07;;;1.90;;
10535;SDS011;5316;49.538;8.352;2023-05-07T08:16:41;3.83;;;2.00;;
10535;SDS011;5316;49.538;8.352;2023-05-07T08:19:08;2.20;;;2.10;;
10535;SDS011;5316;49.538;8.352;2023-05-07T08:21:38;2.77;;;2.00;;
10535;SDS011;5316;49.538;8.352;2023-05-07T08:24:05;2.67;;;2.40;;
10535;SDS011;5316;49.538;8.352;2023-05-07T08:26:32;4.70;;;3.20;;
10535;SDS011;5316;49.538;8.352;2023-05-07T08:29:00;4.47;;;4.07;;
10535;SDS011;5316;49.538;8.352;2023-05-07T08:31:29;4.22;;;2.42;;
10535;SDS011;5316;49.538;8.352;2023-05-07T08:33:55;2.20;;;2.07;;
10535;SDS011;5316;49.538;8.352;2023-05-07T08:36:23;4.50;;;2.20;;
10535;SDS011;5316;49.538;8.352;2023-05-07T08:38:50;2.67;;;2.03;;
10535;SDS011;5316;49.538;8.352;2023-05-07T08:41:17;2.38;;;2.13;;
10535;SDS011;5316;49.538;8.352;2023-05-07T08:43:46;2.60;;;2.20;;
10535;SDS011;5316;49.538;8.352;2023-05-07T08:46:16;4.18;;;2.08;;
10535;SDS011;5316;49.538;8.352;2023-05-07T08:48:49;4.53;;;2.22;;
10535;SDS011;5316;49.538;8.352;2023-05-07T08:51:17;2.27;;;1.70;;
10535;SDS011;5316;49.538;8.352;2023-05-07T08:53:45;2.20;;;2.10;;
10535;SDS011;5316;49.538;8.352;2023-05-07T08:56:13;2.75;;;2.08;;
10535;SDS011;5316;49.538;8.352;2023-05-07T08:58:42;3.15;;;2.13;;
10535;SDS011;5316;49.538;8.352;2023-05-07T09:01:09;4.35;;;2.03;;
10535;SDS011;5316;49.538;8.352;2023-05-07T09:03:39;1.98;;;1.88;;
10535;SDS011;5316;49.538;8.352;2023-05-07T09:06:07;2.35;;;2.00;;
10535;SDS011;5316;49.538;8.352;2023-05-07T09:08:35;1.90;;;1.80;;
10535;SDS011;5316;49.538;8.352;2023-05-07T09:11:02;2.00;;;1.80;;
10535;SDS011;5316;49.538;8.352;2023-05-07T09:13:29;3.08;;;1.85;;
10535;SDS011;5316;49.538;8.352;2023-05-07T09:15:56;2.75;;;1.70;;
10535;SDS011;5316;49.538;8.352;2023-05-07T09:18:23;1.80;;;1.70;;
10535;SDS011;5316;49.538;8.352;2023-05-07T09:20:51;3.55;;;1.52;;
10535;SDS011;5316;49.538;8.352;2023-05-07T09:23:19;1.45;;;1.17;;
10535;SDS011;5316;49.538;8.352;2023-05-07T09:25:47;1.58;;;1.20;;
10535;SDS011;5316;49.538;8.352;2023-05-07T09:28:13;1.70;;;1.60;;
10535;SDS011;5316;49.538;8.352;2023-05-07T09:30:40;1.65;;;1.42;;
10535;SDS011;5316;49.538;8.352;2023-05-07T09:33:07;5.18;;;4.68;;
10535;SDS011;5316;49.538;8.352;2023-05-07T09:35:34;1.58;;;1.48;;
10535;SDS011;5316;49.538;8.352;2023-05-07T09:38:00;2.03;;;1.33;;
10535;SDS011;5316;49.538;8.352;2023-05-07T09:40:29;2.35;;;1.02;;
10535;SDS011;5316;49.538;8.352;2023-05-07T09:43:07;3.28;;;2.58;;
10535;SDS011;5316;49.538;8.352;2023-05-07T09:45:36;3.65;;;3.33;;
10535;SDS011;5316;49.538;8.352;2023-05-07T09:48:04;20.38;;;16.15;;
10535;SDS011;5316;49.538;8.352;2023-05-07T09:50:32;32.17;;;26.00;;
10535;SDS011;5316;49.538;8.352;2023-05-07T09:53:03;34.75;;;28.77;;
10535;SDS011;5316;49.538;8.352;2023-05-07T09:55:32;15.00;;;9.88;;
10535;SDS011;5316;49.538;8.352;2023-05-07T09:57:59;24.55;;;16.33;;
10535;SDS011;5316;49.538;8.352;2023-05-07T10:00:27;2.70;;;2.00;;
10535;SDS011;5316;49.538;8.352;2023-05-07T10:02:55;8.25;;;6.90;;
10535;SDS011;5316;49.538;8.352;2023-05-07T10:05:23;6.88;;;5.68;;
10535;SDS011;5316;49.538;8.352;2023-05-07T10:07:51;2.88;;;1.35;;
10535;SDS011;5316;49.538;8.352;2023-05-07T10:10:19;2.35;;;1.98;;
10535;SDS011;5316;49.538;8.352;2023-05-07T10:12:48;2.60;;;1.30;;
10535;SDS011;5316;49.538;8.352;2023-05-07T10:15:16;1.48;;;1.38;;
10535;SDS011;5316;49.538;8.352;2023-05-07T10:17:43;1.52;;;1.20;;
10535;SDS011;5316;49.538;8.352;2023-05-07T10:20:11;1.33;;;1.23;;
10535;SDS011;5316;49.538;8.352;2023-05-07T10:22:38;3.05;;;1.63;;
10535;SDS011;5316;49.538;8.352;2023-05-07T10:25:09;1.95;;;1.20;;
10535;SDS011;5316;49.538;8.352;2023-05-07T10:27:40;2.92;;;2.72;;
10535;SDS011;5316;49.538;8.352;2023-05-07T10:30:12;3.83;;;1.33;;
10535;SDS011;5316;49.538;8.352;2023-05-07T10:32:48;1.58;;;1.10;;
10535;SDS011;5316;49.538;8.352;2023-05-07T10:35:17;1.88;;;1.77;;
10535;SDS011;5316;49.538;8.352;2023-05-07T10:37:46;4.13;;;2.28;;
10535;SDS011;5316;49.538;8.352;2023-05-07T10:40:14;1.23;;;1.10;;
10535;SDS011;5316;49.538;8.352;2023-05-07T10:42:52;1.45;;;1.38;;
10535;SDS011;5316;49.538;8.352;2023-05-07T10:45:22;1.08;;;1.00;;
10535;SDS011;5316;49.538;8.352;2023-05-07T10:48:05;1.23;;;1.23;;
10535;SDS011;5316;49.538;8.352;2023-05-07T10:50:36;1.90;;;1.58;;
10535;SDS011;5316;49.538;8.352;2023-05-07T10:53:23;3.15;;;1.60;;
10535;SDS011;5316;49.538;8.352;2023-05-07T11:01:58;2.20;;;1.38;;
10535;SDS011;5316;49.538;8.352;2023-05-07T11:04:27;2.30;;;1.48;;
10535;SDS011;5316;49.538;8.352;2023-05-07T11:15:33;3.33;;;3.00;;
10535;SDS011;5316;49.538;8.352;2023-05-07T11:18:04;1.70;;;1.58;;
10535;SDS011;5316;49.538;8.352;2023-05-07T11:20:44;1.50;;;1.40;;
10535;SDS011;5316;49.538;8.352;2023-05-07T11:26:41;1.20;;;1.10;;
10535;SDS011;5316;49.538;8.352;2023-05-07T11:29:13;1.15;;;1.10;;
10535;SDS011;5316;49.538;8.352;2023-05-07T11:31:40;1.65;;;1.10;;
10535;SDS011;5316;49.538;8.352;2023-05-07T11:34:09;2.30;;;1.40;;
10535;SDS011;5316;49.538;8.352;2023-05-07T11:36:40;2.20;;;1.10;;
10535;SDS011;5316;49.538;8.352;2023-05-07T11:39:25;1.40;;;1.27;;
10535;SDS011;5316;49.538;8.352;2023-05-07T11:41:53;1.08;;;0.95;;
10535;SDS011;5316;49.538;8.352;2023-05-07T11:44:20;1.20;;;0.93;;
10535;SDS011;5316;49.538;8.352;2023-05-07T11:46:47;2.45;;;1.40;;
10535;SDS011;5316;49.538;8.352;2023-05-07T11:49:16;1.10;;;1.00;;
10535;SDS011;5316;49.538;8.352;2023-05-07T11:51:43;1.90;;;1.10;;
10535;SDS011;5316;49.538;8.352;2023-05-07T11:54:11;2.45;;;2.25;;
10535;SDS011;5316;49.538;8.352;2023-05-07T11:56:42;2.00;;;1.67;;
10535;SDS011;5316;49.538;8.352;2023-05-07T11:59:09;1.15;;;1.08;;
10535;SDS011;5316;49.538;8.352;2023-05-07T12:01:36;1.10;;;0.90;;
10535;SDS011;5316;49.538;8.352;2023-05-07T12:04:03;1.00;;;1.00;;
10535;SDS011;5316;49.538;8.352;2023-05-07T12:06:35;1.25;;;0.98;;
10535;SDS011;5316;49.538;8.352;2023-05-07T12:09:04;0.80;;;0.80;;
10535;SDS011;5316;49.538;8.352;2023-05-07T12:11:32;0.90;;;0.90;;
10535;SDS011;5316;49.538;8.352;2023-05-07T12:13:58;1.27;;;1.20;;
10535;SDS011;5316;49.538;8.352;2023-05-07T12:16:25;2.88;;;0.98;;
10535;SDS011;5316;49.538;8.352;2023-05-07T12:18:53;1.00;;;0.90;;
10535;SDS011;5316;49.538;8.352;2023-05-07T12:21:20;2.22;;;1.40;;
10535;SDS011;5316;49.538;8.352;2023-05-07T12:23:49;2.63;;;1.10;;
10535;SDS011;5316;49.538;8.352;2023-05-07T12:26:15;1.52;;;1.20;;
10535;SDS011;5316;49.538;8.352;2023-05-07T12:28:42;0.85;;;0.85;;
10535;SDS011;5316;49.538;8.352;2023-05-07T12:31:09;1.88;;;1.13;;
10535;SDS011;5316;49.538;8.352;2023-05-07T12:33:36;3.58;;;3.28;;
10535;SDS011;5316;49.538;8.352;2023-05-07T12:36:05;2.05;;;1.95;;
10535;SDS011;5316;49.538;8.352;2023-05-07T12:38:37;1.40;;;1.30;;
10535;SDS011;5316;49.538;8.352;2023-05-07T12:41:07;1.75;;;0.95;;
10535;SDS011;5316;49.538;8.352;2023-05-07T12:43:35;1.15;;;1.05;;
10535;SDS011;5316;49.538;8.352;2023-05-07T12:46:03;1.25;;;1.00;;
10535;SDS011;5316;49.538;8.352;2023-05-07T12:48:31;1.58;;;0.93;;
10535;SDS011;5316;49.538;8.352;2023-05-07T12:50:59;1.88;;;1.10;;
10535;SDS011;5316;49.538;8.352;2023-05-07T12:53:27;1.88;;;1.20;;
10535;SDS011;5316;49.538;8.352;2023-05-07T12:55:56;1.08;;;0.98;;
10535;SDS011;5316;49.538;8.352;2023-05-07T12:58:26;2.47;;;1.33;;
10535;SDS011;5316;49.538;8.352;2023-05-07T13:00:54;2.40;;;2.20;;
10535;SDS011;5316;49.538;8.352;2023-05-07T13:03:27;1.35;;;1.25;;
10535;SDS011;5316;49.538;8.352;2023-05-07T13:05:55;1.42;;;1.13;;
10535;SDS011;5316;49.538;8.352;2023-05-07T13:08:28;1.70;;;1.25;;
10535;SDS011;5316;49.538;8.352;2023-05-07T13:10:57;0.90;;;0.90;;
10535;SDS011;5316;49.538;8.352;2023-05-07T13:13:26;2.28;;;1.88;;
10535;SDS011;5316;49.538;8.352;2023-05-07T13:15:52;1.00;;;1.00;;
10535;SDS011;5316;49.538;8.352;2023-05-07T13:18:19;1.30;;;1.20;;
10535;SDS011;5316;49.538;8.352;2023-05-07T13:20:46;1.88;;;1.40;;
10535;SDS011;5316;49.538;8.352;2023-05-07T13:23:12;2.28;;;1.00;;
10535;SDS011;5316;49.538;8.352;2023-05-07T13:25:39;2.38;;;1.40;;
10535;SDS011;5316;49.538;8.352;2023-05-07T13:28:06;2.03;;;1.30;;
10535;SDS011;5316;49.538;8.352;2023-05-07T13:30:34;2.00;;;1.27;;
10535;SDS011;5316;49.538;8.352;2023-05-07T13:33:01;1.52;;;1.38;;
10535;SDS011;5316;49.538;8.352;2023-05-07T13:35:28;1.20;;;1.10;;
10535;SDS011;5316;49.538;8.352;2023-05-07T13:37:55;3.30;;;1.20;;
10535;SDS011;5316;49.538;8.352;2023-05-07T13:40:22;1.52;;;1.27;;
10535;SDS011;5316;49.538;8.352;2023-05-07T13:42:49;1.10;;;1.10;;
10535;SDS011;5316;49.538;8.352;2023-05-07T13:45:16;1.30;;;1.20;;
10535;SDS011;5316;49.538;8.352;2023-05-07T13:47:45;2.80;;;1.10;;
10535;SDS011;5316;49.538;8.352;2023-05-07T13:50:14;6.63;;;1.60;;
10535;SDS011;5316;49.538;8.352;2023-05-07T13:52:41;3.10;;;1.33;;
10535;SDS011;5316;49.538;8.352;2023-05-07T13:55:10;3.40;;;1.65;;
10535;SDS011;5316;49.538;8.352;2023-05-07T13:57:37;1.20;;;1.10;;
10535;SDS011;5316;49.538;8.352;2023-05-07T14:00:05;5.80;;;5.20;;
10535;SDS011;5316;49.538;8.352;2023-05-07T14:02:32;4.22;;;2.40;;
10535;SDS011;5316;49.538;8.352;2023-05-07T14:05:00;2.10;;;1.50;;
10535;SDS011;5316;49.538;8.352;2023-05-07T14:07:27;2.70;;;1.65;;
10535;SDS011;5316;49.538;8.352;2023-05-07T14:09:54;2.40;;;1.30;;
10535;SDS011;5316;49.538;8.352;2023-05-07T14:12:21;1.95;;;1.15;;
10535;SDS011;5316;49.538;8.352;2023-05-07T14:14:48;1.60;;;1.50;;
10535;SDS011;5316;49.538;8.352;2023-05-07T14:17:15;1.70;;;1.40;;
10535;SDS011;5316;49.538;8.352;2023-05-07T14:19:43;2.75;;;1.50;;
10535;SDS011;5316;49.538;8.352;2023-05-07T14:22:12;2.28;;;1.83;;
10535;SDS011;5316;49.538;8.352;2023-05-07T14:24:39;2.03;;;1.83;;
10535;SDS011;5316;49.538;8.352;2023-05-07T14:27:06;2.60;;;2.22;;
10535;SDS011;5316;49.538;8.352;2023-05-07T14:29:33;4.32;;;3.20;;
10535;SDS011;5316;49.538;8.352;2023-05-07T14:32:01;7.20;;;4.28;;
10535;SDS011;5316;49.538;8.352;2023-05-07T14:34:28;13.23;;;7.80;;
10535;SDS011;5316;49.538;8.352;2023-05-07T14:36:54;10.95;;;6.40;;
10535;SDS011;5316;49.538;8.352;2023-05-07T14:39:23;11.77;;;7.32;;
10535;SDS011;5316;49.538;8.352;2023-05-07T14:41:50;4.22;;;3.58;;
10535;SDS011;5316;49.538;8.352;2023-05-07T14:44:19;5.88;;;4.15;;
10535;SDS011;5316;49.538;8.352;2023-05-07T14:46:46;5.55;;;4.07;;
10535;SDS011;5316;49.538;8.352;2023-05-07T14:49:13;4.03;;;3.50;;
10535;SDS011;5316;49.538;8.352;2023-05-07T14:51:42;2.40;;;2.20;;
10535;SDS011;5316;49.538;8.352;2023-05-07T14:54:09;2.70;;;2.03;;
10535;SDS011;5316;49.538;8.352;2023-05-07T14:56:37;3.13;;;2.55;;
10535;SDS011;5316;49.538;8.352;2023-05-07T14:59:04;3.55;;;2.40;;
10535;SDS011;5316;49.538;8.352;2023-05-07T15:01:31;3.95;;;2.10;;
10535;SDS011;5316;49.538;8.352;2023-05-07T15:03:59;3.13;;;2.30;;
10535;SDS011;5316;49.538;8.352;2023-05-07T15:06:26;2.60;;;2.40;;
10535;SDS011;5316;49.538;8.352;2023-05-07T15:08:52;3.38;;;2.28;;
10535;SDS011;5316;49.538;8.352;2023-05-07T15:11:19;4.80;;;2.20;;
10535;SDS011;5316;49.538;8.352;2023-05-07T15:13:47;2.35;;;1.70;;
10535;SDS011;5316;49.538;8.352;2023-05-07T15:16:15;2.55;;;1.77;;
10535;SDS011;5316;49.538;8.352;2023-05-07T15:18:42;2.40;;;2.05;;
10535;SDS011;5316;49.538;8.352;2023-05-07T15:21:09;3.15;;;2.00;;
10535;SDS011;5316;49.538;8.352;2023-05-07T15:23:35;3.90;;;3.60;;
10535;SDS011;5316;49.538;8.352;2023-05-07T15:26:03;3.08;;;2.65;;
10535;SDS011;5316;49.538;8.352;2023-05-07T15:28:30;3.15;;;2.30;;